createdAt,value
2023-01-21T00:01:14.779Z,-7.19
2023-01-21T00:03:42.262Z,-7.23
2023-01-21T00:06:09.357Z,-7.27
2023-01-21T00:08:37.574Z,-7.28
2023-01-21T00:11:05.557Z,-7.30
2023-01-21T00:13:33.598Z,-7.34
2023-01-21T00:16:00.371Z,-7.38
2023-01-21T00:18:29.364Z,-7.40
2023-01-21T00:20:56.576Z,-7.42
2023-01-21T00:23:23.395Z,-7.44
2023-01-21T00:25:57.434Z,-7.50
2023-01-21T00:28:23.981Z,-7.53
2023-01-21T00:30:52.441Z,-7.56
2023-01-21T00:33:19.243Z,-7.59
2023-01-21T00:35:45.765Z,-7.62
2023-01-21T00:38:12.330Z,-7.64
2023-01-21T00:40:38.897Z,-7.68
2023-01-21T00:43:06.837Z,-7.70
2023-01-21T00:45:33.536Z,-7.72
2023-01-21T00:48:00.110Z,-7.74
2023-01-21T00:50:26.627Z,-7.75
2023-01-21T00:52:53.289Z,-7.77
2023-01-21T00:55:19.784Z,-7.80
2023-01-21T00:57:46.855Z,-7.82
2023-01-21T01:00:15.332Z,-7.85
2023-01-21T01:02:42.180Z,-7.85
2023-01-21T01:05:09.524Z,-7.88
2023-01-21T01:07:36.172Z,-7.88
2023-01-21T01:10:02.978Z,-7.89
2023-01-21T01:12:29.590Z,-7.89
2023-01-21T01:14:56.142Z,-7.90
2023-01-21T01:17:24.231Z,-7.89
2023-01-21T01:19:50.754Z,-7.91
2023-01-21T01:22:17.302Z,-7.93
2023-01-21T01:24:43.886Z,-7.96
2023-01-21T01:27:10.432Z,-8.00
2023-01-21T01:29:37.194Z,-8.00
2023-01-21T01:32:03.953Z,-8.05
2023-01-21T01:34:32.029Z,-8.08
2023-01-21T01:36:58.716Z,-8.12
2023-01-21T01:39:25.378Z,-8.13
2023-01-21T01:41:53.265Z,-8.15
2023-01-21T01:44:58.234Z,-8.18
2023-01-21T01:47:31.315Z,-8.21
2023-01-21T01:50:01.379Z,-8.23
2023-01-21T01:52:29.554Z,-8.26
2023-01-21T01:54:59.988Z,-8.27
2023-01-21T01:57:34.312Z,-8.29
2023-01-21T02:00:04.248Z,-8.32
2023-01-21T02:02:31.817Z,-8.34
2023-01-21T02:05:04.829Z,-8.37
2023-01-21T02:07:36.588Z,-8.38
2023-01-21T02:10:03.595Z,-8.41
2023-01-21T02:12:30.289Z,-8.45
2023-01-21T02:14:56.898Z,-8.47
2023-01-21T02:17:34.943Z,-8.47
2023-01-21T02:20:42.277Z,-8.49
2023-01-21T02:23:16.908Z,-8.50
2023-01-21T02:26:21.957Z,-8.54
2023-01-21T02:29:27.523Z,-8.57
2023-01-21T02:32:25.614Z,-8.63
2023-01-21T02:34:58.279Z,-8.65
2023-01-21T02:37:35.883Z,-8.66
2023-01-21T02:40:14.034Z,-8.68
2023-01-21T02:42:45.525Z,-8.71
2023-01-21T02:45:21.849Z,-8.73
2023-01-21T02:47:56.251Z,-8.74
2023-01-21T02:50:27.566Z,-8.76
2023-01-21T02:52:58.097Z,-8.75
2023-01-21T02:55:30.008Z,-8.75
2023-01-21T02:58:00.800Z,-8.77
2023-01-21T03:00:33.951Z,-8.80
2023-01-21T03:03:20.458Z,-8.83
2023-01-21T03:06:35.692Z,-8.84
2023-01-21T03:09:13.370Z,-8.83
2023-01-21T03:11:44.132Z,-8.87
2023-01-21T03:14:19.010Z,-8.88
2023-01-21T03:16:47.582Z,-8.91
2023-01-21T03:19:17.755Z,-8.92
2023-01-21T03:21:47.227Z,-8.92
2023-01-21T03:24:14.981Z,-8.91
2023-01-21T03:26:45.769Z,-8.93
2023-01-21T03:29:16.079Z,-8.93
2023-01-21T03:31:45.730Z,-8.96
2023-01-21T03:34:15.187Z,-8.95
2023-01-21T03:36:46.587Z,-8.97
2023-01-21T03:39:21.676Z,-8.96
2023-01-21T03:41:48.477Z,-8.99
2023-01-21T03:44:15.095Z,-9.00
2023-01-21T03:46:47.937Z,-9.01
2023-01-21T03:49:20.577Z,-9.04
2023-01-21T03:51:51.517Z,-9.03
2023-01-21T03:54:19.636Z,-9.03
2023-01-21T03:56:46.266Z,-9.02
2023-01-21T03:59:12.831Z,-8.99
2023-01-21T04:01:39.410Z,-8.98
2023-01-21T04:04:06.011Z,-8.98
2023-01-21T04:06:32.602Z,-8.99
2023-01-21T04:08:59.397Z,-8.99
2023-01-21T04:11:27.359Z,-9.01
2023-01-21T04:13:53.916Z,-9.01
2023-01-21T04:16:20.628Z,-9.03
2023-01-21T04:18:47.215Z,-9.03
2023-01-21T04:21:14.068Z,-9.06
2023-01-21T04:23:41.037Z,-9.09
2023-01-21T04:26:07.692Z,-9.10
2023-01-21T04:28:35.776Z,-9.11
2023-01-21T04:31:02.652Z,-9.13
2023-01-21T04:33:29.188Z,-9.17
2023-01-21T04:35:57.560Z,-9.20
2023-01-21T04:38:24.317Z,-9.20
2023-01-21T04:40:50.957Z,-9.22
2023-01-21T04:43:17.565Z,-9.24
2023-01-21T04:45:45.474Z,-9.28
2023-01-21T04:48:12.045Z,-9.31
2023-01-21T04:50:38.595Z,-9.28
2023-01-21T04:53:05.183Z,-9.25
2023-01-21T04:55:31.872Z,-9.19
2023-01-21T04:57:58.535Z,-9.11
2023-01-21T05:00:25.267Z,-9.02
2023-01-21T05:02:53.176Z,-8.93
2023-01-21T05:05:19.940Z,-8.84
2023-01-21T05:07:46.672Z,-8.76
2023-01-21T05:10:16.514Z,-8.66
2023-01-21T05:12:43.538Z,-8.62
2023-01-21T05:15:10.991Z,-8.56
2023-01-21T05:17:37.793Z,-8.50
2023-01-21T05:20:06.657Z,-8.42
2023-01-21T05:22:33.210Z,-8.37
2023-01-21T05:24:59.932Z,-8.31
2023-01-21T05:27:26.480Z,-8.28
2023-01-21T05:29:53.191Z,-8.23
2023-01-21T05:32:19.946Z,-8.14
2023-01-21T05:34:46.534Z,-8.11
2023-01-21T05:37:14.801Z,-8.06
2023-01-21T05:39:41.426Z,-8.03
2023-01-21T05:42:07.968Z,-7.97
2023-01-21T05:44:34.502Z,-7.93
2023-01-21T05:47:01.173Z,-7.89
2023-01-21T05:49:28.265Z,-7.85
2023-01-21T05:51:55.037Z,-7.81
2023-01-21T05:54:22.882Z,-7.78
2023-01-21T05:56:49.684Z,-7.75
2023-01-21T05:59:16.249Z,-7.71
2023-01-21T06:01:42.836Z,-7.66
2023-01-21T06:04:09.466Z,-7.64
2023-01-21T06:06:36.220Z,-7.61
2023-01-21T06:09:03.051Z,-7.56
2023-01-21T06:11:31.113Z,-7.56
2023-01-21T06:13:57.889Z,-7.52
2023-01-21T06:16:24.446Z,-7.50
2023-01-21T06:18:51.068Z,-7.44
2023-01-21T06:21:17.637Z,-7.40
2023-01-21T06:23:44.184Z,-7.36
2023-01-21T06:26:10.803Z,-7.32
2023-01-21T06:28:38.673Z,-7.29
2023-01-21T06:31:05.656Z,-7.25
2023-01-21T06:33:32.199Z,-7.21
2023-01-21T06:35:58.905Z,-7.20
2023-01-21T06:38:25.458Z,-7.16
2023-01-21T06:40:52.276Z,-7.14
2023-01-21T06:43:18.801Z,-7.15
2023-01-21T06:45:46.749Z,-7.11
2023-01-21T06:48:13.308Z,-7.10
2023-01-21T06:50:40.053Z,-7.06
2023-01-21T06:53:06.611Z,-7.04
2023-01-21T06:55:33.212Z,-7.00
2023-01-21T06:57:59.932Z,-6.98
2023-01-21T07:00:26.563Z,-6.91
2023-01-21T07:02:57.250Z,-6.87
2023-01-21T07:05:23.828Z,-6.83
2023-01-21T07:07:53.402Z,-6.78
2023-01-21T07:10:19.945Z,-6.66
2023-01-21T07:12:46.689Z,-6.35
2023-01-21T07:15:13.487Z,-5.98
2023-01-21T07:17:40.256Z,-5.80
2023-01-21T07:20:09.864Z,-5.63
2023-01-21T07:22:36.428Z,-5.44
2023-01-21T07:25:03.141Z,-5.34
2023-01-21T07:27:29.655Z,-5.36
2023-01-21T07:29:56.185Z,-5.33
2023-01-21T07:32:22.963Z,-5.31
2023-01-21T07:34:49.490Z,-5.31
2023-01-21T07:37:17.608Z,-5.29
2023-01-21T07:39:44.296Z,-5.27
2023-01-21T07:42:10.845Z,-5.27
2023-01-21T07:44:37.474Z,-5.24
2023-01-21T07:47:04.418Z,-5.20
2023-01-21T07:49:30.936Z,-5.18
2023-01-21T07:51:57.650Z,-4.99
2023-01-21T07:54:25.613Z,-4.92
2023-01-21T07:56:52.290Z,-4.76
2023-01-21T07:59:18.967Z,-4.70
2023-01-21T08:01:45.624Z,-4.62
2023-01-21T08:04:12.255Z,-4.57
2023-01-21T08:06:39.004Z,-4.49
2023-01-21T08:09:05.580Z,-4.45
2023-01-21T08:11:33.564Z,-4.40
2023-01-21T08:14:00.101Z,-4.38
2023-01-21T08:16:26.783Z,-4.34
2023-01-21T08:18:53.387Z,-4.30
2023-01-21T08:21:20.026Z,-4.29
2023-01-21T08:23:46.859Z,-4.27
2023-01-21T08:26:13.579Z,-4.25
2023-01-21T08:28:41.612Z,-4.21
2023-01-21T08:31:11.025Z,-4.19
2023-01-21T08:33:38.243Z,-4.16
2023-01-21T08:36:07.234Z,-4.16
2023-01-21T08:38:34.094Z,-4.16
2023-01-21T08:41:00.728Z,-4.12
2023-01-21T08:43:27.404Z,-4.09
2023-01-21T08:45:57.474Z,-4.06
2023-01-21T08:48:24.200Z,-4.06
2023-01-21T08:50:50.792Z,-4.03
2023-01-21T08:53:17.482Z,-4.01
2023-01-21T08:55:44.014Z,-3.98
2023-01-21T08:58:10.671Z,-3.96
2023-01-21T09:00:37.291Z,-3.90
2023-01-21T09:03:05.245Z,-3.87
2023-01-21T09:05:31.928Z,-3.86
2023-01-21T09:07:58.536Z,-3.81
2023-01-21T09:10:25.359Z,-3.78
2023-01-21T09:12:51.905Z,-3.75
2023-01-21T09:15:18.928Z,-3.68
2023-01-21T09:17:45.480Z,-3.64
2023-01-21T09:20:13.650Z,-3.56
2023-01-21T09:22:40.142Z,-3.51
2023-01-21T09:25:07.210Z,-3.52
2023-01-21T09:27:33.722Z,-3.52
2023-01-21T09:30:00.406Z,-3.50
2023-01-21T09:32:26.923Z,-3.50
2023-01-21T09:34:53.569Z,-3.50
2023-01-21T09:37:21.485Z,-3.45
2023-01-21T09:39:49.229Z,-3.44
2023-01-21T09:42:20.940Z,-3.45
2023-01-21T09:44:52.640Z,-3.43
2023-01-21T09:47:23.588Z,-3.40
2023-01-21T09:49:54.092Z,-3.39
2023-01-21T09:52:30.172Z,-3.38
2023-01-21T09:54:58.211Z,-3.36
2023-01-21T09:57:36.236Z,-3.36
2023-01-21T10:00:31.875Z,-3.39
2023-01-21T10:03:04.795Z,-3.38
2023-01-21T10:05:57.953Z,-3.34
2023-01-21T10:08:34.489Z,-3.35
2023-01-21T10:11:13.597Z,-3.32
2023-01-21T10:14:09.299Z,-3.29
2023-01-21T10:16:42.358Z,-3.25
2023-01-21T10:19:14.700Z,-3.26
2023-01-21T10:21:47.775Z,-3.22
2023-01-21T10:24:20.370Z,-3.20
2023-01-21T10:26:49.762Z,-3.16
2023-01-21T10:29:17.989Z,-3.15
2023-01-21T10:31:51.473Z,-3.09
2023-01-21T10:34:19.551Z,-3.08
2023-01-21T10:36:57.118Z,-3.01
2023-01-21T10:39:37.040Z,-3.00
2023-01-21T10:42:25.737Z,-2.99
2023-01-21T10:45:01.438Z,-2.96
2023-01-21T10:47:36.684Z,-2.94
2023-01-21T10:50:17.661Z,-2.91
2023-01-21T10:52:49.320Z,-2.84
2023-01-21T10:55:28.521Z,-2.77
2023-01-21T10:57:58.520Z,-2.76
2023-01-21T11:00:28.454Z,-2.73
2023-01-21T11:02:59.057Z,-2.77
2023-01-21T11:05:26.338Z,-2.71
2023-01-21T11:07:55.244Z,-2.67
2023-01-21T11:10:25.851Z,-2.69
2023-01-21T11:12:54.310Z,-2.65
2023-01-21T11:15:21.972Z,-2.67
2023-01-21T11:17:50.881Z,-2.66
2023-01-21T11:20:23.016Z,-2.63
2023-01-21T11:22:50.922Z,-2.61
2023-01-21T11:25:30.887Z,-2.59
2023-01-21T11:27:57.457Z,-2.49
2023-01-21T11:30:48.986Z,-2.46
2023-01-21T11:33:24.407Z,-2.52
2023-01-21T11:35:52.478Z,-2.48
2023-01-21T11:38:32.186Z,-2.39
2023-01-21T11:41:18.536Z,-2.40
2023-01-21T11:43:47.433Z,-2.43
2023-01-21T11:46:25.126Z,-2.41
2023-01-21T11:48:54.720Z,-2.49
2023-01-21T11:51:21.334Z,-2.48
2023-01-21T11:53:48.024Z,-2.47
2023-01-21T11:56:16.516Z,-2.38
2023-01-21T11:58:43.316Z,-2.42
2023-01-21T12:01:19.813Z,-2.35
2023-01-21T12:03:52.221Z,-2.34
2023-01-21T12:06:22.432Z,-2.32
2023-01-21T12:08:51.987Z,-2.35
2023-01-21T12:11:24.399Z,-2.37
2023-01-21T12:13:59.550Z,-2.37
2023-01-21T12:16:34.124Z,-2.24
2023-01-21T12:19:17.881Z,-2.26
2023-01-21T12:21:57.909Z,-2.24
2023-01-21T12:24:39.678Z,-2.15
2023-01-21T12:27:20.864Z,-2.31
2023-01-21T12:30:01.312Z,-2.22
2023-01-21T12:32:31.133Z,-2.16
2023-01-21T12:35:04.365Z,-2.19
2023-01-21T12:37:36.632Z,-2.16
2023-01-21T12:40:15.015Z,-2.17
2023-01-21T12:42:47.770Z,-2.10
2023-01-21T12:45:18.512Z,-2.11
2023-01-21T12:47:52.004Z,-1.99
2023-01-21T12:50:26.307Z,-2.05
2023-01-21T12:53:04.886Z,-2.04
2023-01-21T12:55:41.506Z,-1.98
2023-01-21T12:58:14.568Z,-2.00
2023-01-21T13:00:45.000Z,-1.95
2023-01-21T13:03:21.085Z,-1.97
2023-01-21T13:05:54.767Z,-2.03
2023-01-21T13:08:44.381Z,-2.07
2023-01-21T13:11:18.352Z,-2.09
2023-01-21T13:13:53.016Z,-2.05
2023-01-21T13:16:22.066Z,-2.03
2023-01-21T13:18:52.438Z,-2.03
2023-01-21T13:21:30.763Z,-1.99
2023-01-21T13:24:04.947Z,-2.00
2023-01-21T13:26:40.458Z,-1.92
2023-01-21T13:29:16.457Z,-1.94
2023-01-21T13:31:48.313Z,-1.86
2023-01-21T13:34:24.391Z,-1.77
2023-01-21T13:37:03.702Z,-1.75
2023-01-21T13:39:40.485Z,-1.78
2023-01-21T13:42:22.840Z,-1.74
2023-01-21T13:45:10.261Z,-1.79
2023-01-21T13:47:53.594Z,-1.82
2023-01-21T13:50:27.735Z,-1.84
2023-01-21T13:53:14.912Z,-1.79
2023-01-21T13:55:51.182Z,-1.81
2023-01-21T13:58:32.854Z,-1.81
2023-01-21T14:01:05.638Z,-1.78
2023-01-21T14:03:38.836Z,-1.73
2023-01-21T14:06:09.811Z,-1.69
2023-01-21T14:08:43.013Z,-1.68
2023-01-21T14:11:16.149Z,-1.66
2023-01-21T14:14:23.336Z,-1.72
2023-01-21T14:17:13.391Z,-1.71
2023-01-21T14:20:19.224Z,-1.79
2023-01-21T14:23:20.374Z,-1.85
2023-01-21T14:26:01.644Z,-1.88
2023-01-21T14:28:38.638Z,-1.87
2023-01-21T14:31:10.508Z,-1.87
2023-01-21T14:33:42.517Z,-1.94
2023-01-21T14:36:15.898Z,-1.93
2023-01-21T14:38:56.676Z,-1.96
2023-01-21T14:41:23.409Z,-1.99
2023-01-21T14:43:52.104Z,-2.00
2023-01-21T14:46:30.987Z,-2.00
2023-01-21T14:49:04.222Z,-2.05
2023-01-21T14:51:32.320Z,-2.03
2023-01-21T14:54:01.900Z,-2.02
2023-01-21T14:56:30.095Z,-2.06
2023-01-21T14:58:59.500Z,-2.07
2023-01-21T15:01:33.648Z,-2.06
2023-01-21T15:04:04.210Z,-2.06
2023-01-21T15:06:35.585Z,-2.04
2023-01-21T15:09:02.344Z,-2.04
2023-01-21T15:11:34.652Z,-2.04
2023-01-21T15:14:12.238Z,-2.07
2023-01-21T15:16:39.959Z,-2.06
2023-01-21T15:19:27.053Z,-2.09
2023-01-21T15:22:23.304Z,-2.11
2023-01-21T15:25:20.914Z,-2.11
2023-01-21T15:28:36.372Z,-2.06
2023-01-21T15:31:06.554Z,-2.09
2023-01-21T15:33:38.841Z,-2.08
2023-01-21T15:36:18.831Z,-2.13
2023-01-21T15:38:45.684Z,-2.14
2023-01-21T15:41:35.570Z,-2.15
2023-01-21T15:44:18.175Z,-2.16
2023-01-21T15:46:53.353Z,-2.18
2023-01-21T15:49:35.992Z,-2.21
2023-01-21T15:52:18.781Z,-2.21
2023-01-21T15:54:54.050Z,-2.23
2023-01-21T15:57:35.269Z,-2.25
2023-01-21T16:00:30.103Z,-2.26
2023-01-21T16:03:02.234Z,-2.24
2023-01-21T16:05:37.093Z,-2.24
2023-01-21T16:08:24.796Z,-2.26
2023-01-21T16:11:02.322Z,-2.23
2023-01-21T16:13:43.382Z,-2.20
2023-01-21T16:16:16.537Z,-2.23
2023-01-21T16:18:53.374Z,-2.26
2023-01-21T16:21:22.767Z,-2.22
2023-01-21T16:23:55.782Z,-2.21
2023-01-21T16:26:26.975Z,-2.24
2023-01-21T16:28:53.809Z,-2.20
2023-01-21T16:31:20.659Z,-2.18
2023-01-21T16:33:47.551Z,-2.19
2023-01-21T16:36:14.453Z,-2.14
2023-01-21T16:38:42.725Z,-2.15
2023-01-21T16:41:25.266Z,-2.17
2023-01-21T16:43:58.199Z,-2.15
2023-01-21T16:46:27.190Z,-2.15
2023-01-21T16:48:56.089Z,-2.11
2023-01-21T16:51:25.926Z,-2.10
2023-01-21T16:53:53.127Z,-2.04
2023-01-21T16:56:28.930Z,-2.03
2023-01-21T16:58:55.839Z,-2.05
2023-01-21T17:01:25.069Z,-2.05
2023-01-21T17:03:51.696Z,-2.06
2023-01-21T17:06:23.664Z,-2.07
2023-01-21T17:08:53.350Z,-2.09
2023-01-21T17:11:21.455Z,-2.11
2023-01-21T17:13:50.304Z,-2.14
2023-01-21T17:16:23.774Z,-2.12
2023-01-21T17:18:54.155Z,-2.13
2023-01-21T17:21:30.329Z,-2.10
2023-01-21T17:23:59.941Z,-2.07
2023-01-21T17:26:28.892Z,-2.08
2023-01-21T17:29:00.363Z,-2.12
2023-01-21T17:31:30.594Z,-2.16
2023-01-21T17:34:01.904Z,-2.14
2023-01-21T17:36:33.215Z,-2.07
2023-01-21T17:39:00.231Z,-2.05
2023-01-21T17:41:29.462Z,-2.04
2023-01-21T17:43:59.151Z,-2.02
2023-01-21T17:46:28.722Z,-2.04
2023-01-21T17:49:07.847Z,-1.99
2023-01-21T17:51:37.183Z,-1.93
2023-01-21T17:54:22.621Z,-1.94
2023-01-21T17:56:51.057Z,-1.93
2023-01-21T17:59:28.844Z,-1.95
2023-01-21T18:01:55.876Z,-1.97
2023-01-21T18:04:22.918Z,-1.99
2023-01-21T18:06:49.866Z,-2.00
2023-01-21T18:09:18.875Z,-2.04
2023-01-21T18:11:45.688Z,-2.06
2023-01-21T18:16:59.543Z,-2.12
2023-01-21T18:19:34.482Z,-2.12
2023-01-21T18:22:02.620Z,-2.11
2023-01-21T18:24:29.235Z,-2.11
2023-01-21T18:26:58.469Z,-2.13
2023-01-21T18:29:29.985Z,-2.14
2023-01-21T18:32:00.321Z,-2.09
2023-01-21T18:34:27.069Z,-2.01
2023-01-21T18:36:54.141Z,-1.96
2023-01-21T18:39:20.778Z,-1.96
2023-01-21T18:41:47.709Z,-1.97
2023-01-21T18:44:14.847Z,-1.93
2023-01-21T18:46:42.246Z,-1.88
2023-01-21T18:49:14.129Z,-1.83
2023-01-21T18:51:40.705Z,-1.81
2023-01-21T18:54:07.386Z,-1.85
2023-01-21T18:56:34.094Z,-1.85
2023-01-21T18:59:00.686Z,-1.84
2023-01-21T19:01:27.363Z,-1.82
2023-01-21T19:03:54.069Z,-1.75
2023-01-21T19:06:24.864Z,-1.72
2023-01-21T19:08:54.437Z,-1.69
2023-01-21T19:11:21.061Z,-1.70
2023-01-21T19:13:47.878Z,-1.70
2023-01-21T19:16:24.809Z,-1.75
2023-01-21T19:22:21.448Z,-1.69
2023-01-21T19:24:48.364Z,-1.75
2023-01-21T19:27:21.508Z,-1.77
2023-01-21T19:29:48.353Z,-1.76
2023-01-21T19:32:15.544Z,-1.67
2023-01-21T19:34:42.185Z,-1.66
2023-01-21T19:37:11.790Z,-1.62
2023-01-21T19:39:39.806Z,-1.58
2023-01-21T19:42:08.641Z,-1.62
2023-01-21T19:44:35.712Z,-1.63
2023-01-21T19:47:02.430Z,-1.61
2023-01-21T19:49:29.245Z,-1.56
2023-01-21T19:51:55.788Z,-1.54
2023-01-21T19:54:22.401Z,-1.53
2023-01-21T19:56:50.465Z,-1.55
2023-01-21T19:59:17.257Z,-1.50
2023-01-21T20:01:43.860Z,-1.50
2023-01-21T20:04:10.448Z,-1.48
2023-01-21T20:06:40.227Z,-1.48
2023-01-21T20:09:07.241Z,-1.51
2023-01-21T20:11:33.847Z,-1.48
2023-01-21T20:14:01.797Z,-1.48
2023-01-21T20:16:30.621Z,-1.50
2023-01-21T20:18:57.408Z,-1.52
2023-01-21T20:21:23.998Z,-1.50
2023-01-21T20:23:50.594Z,-1.50
2023-01-21T20:26:28.323Z,-1.49
2023-01-21T20:28:54.882Z,-1.52
2023-01-21T20:31:23.039Z,-1.53
2023-01-21T20:33:50.344Z,-1.52
2023-01-21T20:36:19.720Z,-1.57
2023-01-21T20:38:46.413Z,-1.59
2023-01-21T20:41:13.022Z,-1.55
2023-01-21T20:43:40.118Z,-1.63
2023-01-21T20:46:12.554Z,-1.66
2023-01-21T20:48:42.381Z,-1.68
2023-01-21T20:51:10.014Z,-1.74
2023-01-21T20:53:37.264Z,-1.75
2023-01-21T20:56:16.465Z,-1.80
2023-01-21T20:58:43.103Z,-1.80
2023-01-21T21:01:09.754Z,-1.82
2023-01-21T21:03:36.345Z,-1.81
2023-01-21T21:06:11.536Z,-1.79
2023-01-21T21:08:38.232Z,-1.82
2023-01-21T21:11:05.386Z,-1.84
2023-01-21T21:13:31.985Z,-1.84
2023-01-21T21:15:58.642Z,-1.82
2023-01-21T21:18:25.486Z,-1.84
2023-01-21T21:20:52.389Z,-1.86
2023-01-21T21:23:20.353Z,-1.91
2023-01-21T21:25:47.868Z,-1.92
2023-01-21T21:28:16.478Z,-1.93
2023-01-21T21:30:43.792Z,-1.93
2023-01-21T21:33:15.325Z,-1.94
2023-01-21T21:35:41.883Z,-1.92
2023-01-21T21:38:12.805Z,-1.92
2023-01-21T21:40:40.955Z,-1.92
2023-01-21T21:43:07.559Z,-1.93
2023-01-21T21:45:35.448Z,-1.94
2023-01-21T21:48:02.367Z,-1.95
2023-01-21T21:50:28.941Z,-1.92
2023-01-21T21:52:55.457Z,-1.94
2023-01-21T21:55:22.074Z,-1.92
2023-01-21T21:57:50.034Z,-1.89
2023-01-21T22:00:18.443Z,-1.91
2023-01-21T22:02:45.037Z,-1.94
2023-01-21T22:05:11.649Z,-1.94
2023-01-21T22:07:38.576Z,-1.93
2023-01-21T22:10:06.020Z,-1.88
2023-01-21T22:12:32.786Z,-1.88
2023-01-21T22:15:00.750Z,-1.89
2023-01-21T22:17:27.514Z,-1.87
2023-01-21T22:19:54.064Z,-1.88
2023-01-21T22:22:20.662Z,-1.89
2023-01-21T22:24:47.249Z,-1.91
2023-01-21T22:27:14.667Z,-1.90
2023-01-21T22:29:41.303Z,-1.86
2023-01-21T22:32:09.288Z,-1.90
2023-01-21T22:34:35.827Z,-1.91
2023-01-21T22:37:02.358Z,-1.89
2023-01-21T22:39:28.890Z,-1.92
2023-01-21T22:41:55.447Z,-1.92
2023-01-21T22:44:22.005Z,-1.90
2023-01-21T22:46:48.578Z,-1.91
2023-01-21T22:49:16.815Z,-1.88
2023-01-21T22:51:43.389Z,-1.88
2023-01-21T22:54:10.181Z,-1.87
2023-01-21T22:56:51.661Z,-1.90
2023-01-21T22:59:19.025Z,-1.89
2023-01-21T23:01:45.611Z,-1.91
2023-01-21T23:04:12.249Z,-1.93
2023-01-21T23:06:40.290Z,-1.91
2023-01-21T23:09:09.508Z,-1.92
2023-01-21T23:11:39.378Z,-1.93
2023-01-21T23:14:07.609Z,-1.93
2023-01-21T23:16:34.204Z,-1.94
2023-01-21T23:19:00.921Z,-1.90
2023-01-21T23:21:27.610Z,-1.91
2023-01-21T23:23:55.505Z,-1.88
2023-01-21T23:26:22.486Z,-1.88
2023-01-21T23:28:53.083Z,-1.87
2023-01-21T23:31:19.883Z,-1.85
2023-01-21T23:33:49.247Z,-1.87
2023-01-21T23:36:16.021Z,-1.87
2023-01-21T23:38:43.210Z,-1.87
2023-01-21T23:41:12.514Z,-1.89
2023-01-21T23:43:39.736Z,-1.89
2023-01-21T23:46:07.081Z,-1.88
2023-01-21T23:48:33.674Z,-1.87
2023-01-21T23:51:05.006Z,-1.88
2023-01-21T23:53:32.228Z,-1.89
2023-01-21T23:56:06.410Z,-1.87
2023-01-21T23:58:34.327Z,-1.87
